Title 👀 👍🏼 👎 💬 📅
up all night long17,7282,24729 450 12-06-2019 22:43
Model X is all messed up843,89737,2672,038 1,961 12-05-2019 14:00
a horrible situation1,884,44079,1601,911 4,268 11-09-2019 22:29
Divorce Beach.1,952,30378,4282,635 5,987 11-04-2019 13:00
$400 Mavic Mini Drone; GARBAGE or great??1,328,00748,7831,164 4,074 11-02-2019 15:09
i'm going back to NYC.1,379,32768,3812,882 5,031 10-31-2019 22:03
MY LiFE iN LA2,557,601181,7192,541 13,950 10-08-2019 14:30
My New New Studio2,519,06788,8604,685 5,369 08-14-2019 16:41
Faster than a Tesla.. Formula E Racing1,262,94751,7691,364 3,087 08-01-2019 21:34
this is the end.4,408,363217,5328,204 19,052 07-18-2019 20:45
Top of the Line Tesla 3 + $20,000.002,266,15773,5457,991 5,692 05-30-2019 16:45
Dipping an APPLE WATCH in PURE GOLD!!2,803,768101,8173,532 4,847 05-22-2019 14:09
Building a $58 Million NYC Apartment1,996,97470,3402,328 4,329 05-20-2019 20:32
come to 368.1,533,82354,6161,636 2,357 05-17-2019 12:33
i'M Leaving NYC forever..2,979,454124,9613,172 11,358 05-10-2019 18:24
Remembering John Singleton713,19536,458549 1,307 04-30-2019 12:29
NOT GETTING ANY.. a discussion2,862,61078,6146,843 7,501 04-23-2019 19:24
THE FIRST Galaxy Fold5,059,064140,1376,092 13,996 04-16-2019 03:36
MANIPULATED, TRICKED, BRAINWASHED.. moving past a social media addition1,622,59962,0702,532 6,553 04-01-2019 16:44
$2 MILLION in 12 months, the price of Mr. Beast's success3,195,270141,9053,413 8,867 03-27-2019 17:31
Goodbye Social Media.2,271,24078,4082,592 9,380 03-13-2019 16:14
im a lifeguard now.1,595,86957,9611,799 5,307 03-04-2019 13:28
Being RICH vs Being POOR - a video essay1,630,86776,0311,640 6,753 02-26-2019 21:34
IT FINALLY HAPPENED!!1,252,28257,1641,020 6,062 02-07-2019 13:00
ONE LAST ATTEMPT..920,20338,471644 3,652 02-05-2019 20:29
BURGER KiNG Fights back (this is not an ad)2,055,79896,8192,999 7,014 02-02-2019 15:23
Bros Tho.578,28426,349453 2,455 02-01-2019 16:48
EXPLOITED BY BURGER KING.1,957,101114,4886,100 10,768 01-29-2019 13:48
The Lillian Vernon Story370,06921,292644 1,797 01-28-2019 20:34
he said my name HOLY SH*T HE SAID MY NAME!1,733,06373,9481,642 4,386 01-23-2019 18:04
Burnt OUT YouTubers1,086,71657,4873,644 6,564 01-22-2019 17:08
Surfing with GREAT WHITE SHARKS at DUNGEONS SOUTH AFRICA865,35039,803851 2,545 01-16-2019 18:57
GIVING AWAY 100 CASEY CUSTOM NOTE 9s1,046,73850,8022,242 6,409 12-15-2018 00:39
Never Ride and ELECTRIC SCOOTER in the Rain464,42923,328446 2,674 12-14-2018 14:37
In Defense of Rewind 2018787,75441,61422,129 8,284 12-13-2018 21:57
a very tough flight1,533,17153,8441,626 4,826 12-10-2018 15:31
DJI OSMO Pocket vs. GOPRO 7 (which has better stabilization??)1,368,38345,7911,217 5,962 12-05-2018 15:46
LET ME EXPLAIN847,53439,8031,275 3,513 12-03-2018 16:50
She Asked the Big Question.1,460,73150,6691,020 4,064 11-08-2018 21:09
super sad.1,184,47471,0871,088 4,582 11-07-2018 18:43
I CUT MY DIAMOND PLAY BUTTON IN HALF (10 Million Sub button)1,006,29044,6943,167 3,930 11-06-2018 17:56
weird flex but ok.912,46041,089922 4,474 11-05-2018 21:18
70 People with No Clothes on Photographed at 3681,201,91547,0132,030 8,907 11-01-2018 16:49
Living in NYC during a Crisis1,570,94352,1793,389 4,106 10-25-2018 23:52
A $10 Million Dollar Joke1,807,38666,5991,803 3,541 10-18-2018 15:40
Navy Seal Commander explains why wake up at 4am1,696,54983,9982,356 7,193 10-15-2018 19:11
we had a baby1,318,121149,356777 14,246 10-12-2018 18:57
An Extraordinary Moment1,164,21455,1721,314 3,433 10-03-2018 17:03
the VERY BEST SMARTWATCH...1,506,99243,7783,358 4,125 09-26-2018 12:49
Shawn Mendes Trailer!996,34952,0321,710 2,900 09-22-2018 18:10
i didnt want to like it. GoPro 7; GREATEST EVER.1,516,14245,1251,064 4,394 09-20-2018 21:17
Making fun of people.774,56537,223710 2,914 09-19-2018 17:56
COMPETE WiTH YOURSELF705,98534,477389 2,017 09-17-2018 22:03
THAT ELON MUSK INTERViEW and the dangers of VLogging.1,917,78277,4142,686 5,020 09-11-2018 17:01
never get in an UNLOCKED POLICE CAR!!!1,046,15339,4191,001 2,413 09-08-2018 15:05
MEET MY TWIN! - bfv&tattoos at 368591,64824,823685 2,335 09-07-2018 16:46
we had a Creator PARTY AT 368!!686,20429,453422 1,918 09-06-2018 16:37
everything is changing1,432,18154,8532,441 4,666 09-05-2018 12:17
this was a BAD idea2,007,78864,7422,423 5,280 09-01-2018 16:48
MAVIC 2 PRO + ZOOM vs. MAVIC 1 - is it worth the $$$ ?1,501,40241,8471,535 4,273 08-23-2018 15:59
Dear NYPD1,646,16458,3372,518 6,230 08-17-2018 18:10
i got hurt1,060,45743,398701 3,062 08-16-2018 15:07
Galaxy Note 9 VS iPhone X - ULTIMATE VIDEO CAMERA COMPARISON705,34633,762879 7,241 08-15-2018 23:29
DOING THE IMPOSSIBLE.. running 4 marathons in a 7 days890,14846,026578 5,050 08-14-2018 15:33
MEETING ONE OF MY FAVORITE YOUTUBERS1,071,80739,755983 3,786 08-13-2018 15:54
SHE NEARLY MELTED MY ARM OFF1,129,32447,1601,471 4,333 08-09-2018 19:41
ARE THESE $1 Electric Scooters GOOD or DANGEROUS?1,101,93037,642813 3,607 08-08-2018 19:02
Dan IS GONE. (from nyc. sad)1,151,86851,993816 4,080 08-06-2018 12:55
10 Million1,622,447102,0902,271 12,440 08-03-2018 23:36
The Logan Paul Interview.4,711,585139,40581,144 53,838 07-27-2018 13:00
the PAINFUL TRUTH ABOUT 368 (my company. an emotional video)1,197,15166,3101,245 8,291 07-26-2018 14:25
TESTING REAL HOVER SHOES1,249,18849,1171,239 3,290 07-25-2018 11:51
THEY GOT MARRIED AT 368!!!513,36324,508402 2,256 07-24-2018 18:00
A 3 MiNUTE EXPERiMENT; IT WORKED!!!355,86243,046511 6,595 07-24-2018 12:00
THIS HAS NEVER BEEN DONE BEFORE!1,027,69443,980643 2,625 07-20-2018 18:33
CASEY + AN OLYMPIAN GO RUNNING864,49447,136575 6,286 07-18-2018 16:44
Sharing the Ups and DOwns of our marriage803,23233,192811 3,087 07-16-2018 13:17
i just miss him so much (not emotional)1,064,65246,937656 4,192 07-13-2018 15:15
THE GREATEST COMPACT CAMERA but is it worth $1200?940,60636,582553 4,184 07-11-2018 14:14
all of the things952,75149,516557 4,802 07-10-2018 16:30
SURF NEW YORK CITY1,267,43786,162979 4,614 07-03-2018 19:03
Hospitalized1,127,16848,651856 3,952 07-02-2018 16:59
HOW TO GET A BOOSTED BOARD ON AN AIRPLANE1,032,71336,1751,202 2,668 06-26-2018 20:05
This is what she wears to work1,009,49038,2321,080 2,762 06-25-2018 20:27
CUSTOMIZE EVERYTHING1,272,04445,731813 4,471 06-20-2018 18:30
8,000 People Applied for 1 job at 3681,319,77057,201990 5,522 06-16-2018 18:24
dear haters1,143,95748,1051,454 5,501 06-13-2018 16:21
my FaVoriTE CELL PhonEs! (tech tuesday intro by Dan Mace)873,77435,686762 4,127 06-12-2018 15:23
I Tried to help him745,45533,575533 2,910 06-11-2018 21:41
I FLEW THE FIRST FLYING CAR!!!!1,306,10469,5861,647 6,303 06-10-2018 17:17
VISITING THE FLYING CAR SECRET FACILITY!1,054,79147,111934 2,742 06-08-2018 12:18
DJi Ronin-S a first look at this dope gimbal1,193,67838,717898 2,938 06-05-2018 21:32
FLexing so hard in our $299 Private Jet.1,225,03443,197808 2,672 06-01-2018 00:35
Do You WANT TO WORK at 368?1,188,61546,094955 5,788 05-29-2018 21:38
The Pressure of being a YouTuber889,21339,1361,248 4,317 05-28-2018 23:24
FLYING A DRONE LEGALLY IN NEW YORK CITY979,48640,315734 3,317 05-27-2018 13:25
What Happened to the 368 Vlog?1,068,45251,5161,831 3,546 05-26-2018 12:00
A Shark Bit His Hand Off.1,426,23367,370649 5,054 05-19-2018 22:53
NO VLOG972,01840,0731,287 2,637 05-18-2018 15:44
We had to call the police at 3681,183,29053,6671,326 4,971 05-16-2018 19:10
CASEY NEISTAT IS THE WORST TECH-REVIEWER [GDU O2 Review]1,062,41936,686821 2,763 05-15-2018 17:46
HELP WANTED1,203,14651,240861 3,272 05-14-2018 15:17
Motorized PoGo STICK!!!1,470,37546,1101,513 2,788 05-13-2018 19:30
hE maDe ME ChaNgE The TItlE1,063,33241,973713 3,011 05-11-2018 17:44
I ate $1000 GOLD CHICKEN WINGS!1,823,56773,7673,833 7,154 05-10-2018 13:10
Is This Bike worth $2000? [SUPER 73 REVIEW]1,731,98054,5841,142 4,355 05-09-2018 13:35
NO EXCUSES.1,440,15473,1991,743 5,332 05-07-2018 21:28
Dear NYPD, FIX THE PROBLEM instead of punishing Cyclists1,638,84777,9842,227 6,827 05-06-2018 13:36
TODAY IS THE DAY!!1,036,03135,9621,212 3,022 05-04-2018 12:49
VACATION did not go as planned : (1,178,53342,7191,300 3,354 05-03-2018 14:55
this $90 water bottle has a Hi Def Video Camera1,721,51055,8011,451 3,437 05-01-2018 15:45
She Saved Us1,163,43741,871633 3,058 04-30-2018 20:27
DAN SCREWED ME OVER. (this is a clickbait title)1,167,61855,913858 5,694 04-29-2018 18:09
BUSINESS SECRETS FROM REDDIT FOUNDER1,107,13246,721781 4,474 04-26-2018 16:04
Why I Wear a Suit??1,536,96464,3721,279 8,378 04-25-2018 16:40
WE MADE A PIZZA DELIVERY DRONE!1,104,36252,9661,616 4,003 04-24-2018 16:54
White Castle IMPOSSIBLE (fake) Burger vs. REAL Burger1,390,20047,9942,295 3,693 04-23-2018 14:37
BiG WONG1,247,70151,077840 4,111 04-22-2018 14:38
just SMACK IT.1,481,30956,6732,471 6,612 04-20-2018 15:47
$628,360 Rolls Royce Phantom1,942,85173,7804,428 6,279 04-19-2018 03:29
OFFICIAL MINI-BOOSTED BOARD - $7502,092,29584,6231,224 6,284 04-17-2018 19:03
best friends.1,227,88659,7661,266 4,315 04-16-2018 20:50
HiS BILLION DOLLAR IDEA1,943,41888,6802,318 7,058 04-15-2018 14:05
Wishes Come True; ZOMBIES, SUPER SCARY ZOMBIE MOVIE1,049,93472,8581,283 4,384 04-14-2018 13:50
WAiT TiLL YOU SEE THiS!1,472,45258,588998 5,210 04-13-2018 15:20
368 THE UNANSWERED QUESTION?1,422,52460,9861,127 6,216 04-12-2018 12:57
MY HAIR IS GONE.1,896,94787,7151,643 11,220 04-11-2018 13:41
$35 vs. $7,000 SUPERZOOOOM2,128,51680,2701,349 6,511 04-10-2018 13:50
Motorized Scooter CRASH in an Airport1,626,71576,4751,504 7,218 04-09-2018 13:20
How do i keep going?1,753,59979,1612,054 6,915 04-07-2018 12:17
368 THE FIRST EPISODE2,639,812153,3124,043 14,478 04-06-2018 12:26
what would you do with $25,000?000 0 12-16-2013 20:01
My Custom Glasses000 0 09-26-2013 17:43
Bike Lanes by Casey Neistat000 0 06-08-2011 02:48
000 0 11-30--0001 00:00